sensor_id;sensor_type;location;lat;lon;timestamp;P1;durP1;ratioP1;P2;durP2;ratioP2
30346;SDS011;19047;44.782;20.468;2022-08-18T00:01:48;7.65;;;4.30;;
30346;SDS011;19047;44.782;20.468;2022-08-18T00:05:10;7.13;;;4.95;;
30346;SDS011;19047;44.782;20.468;2022-08-18T00:08:44;7.95;;;5.03;;
30346;SDS011;19047;44.782;20.468;2022-08-18T00:12:03;7.38;;;4.80;;
30346;SDS011;19047;44.782;20.468;2022-08-18T00:15:39;7.05;;;4.45;;
30346;SDS011;19047;44.782;20.468;2022-08-18T00:18:59;5.90;;;4.25;;
30346;SDS011;19047;44.782;20.468;2022-08-18T00:22:30;7.97;;;4.55;;
30346;SDS011;19047;44.782;20.468;2022-08-18T00:26:03;5.05;;;4.30;;
30346;SDS011;19047;44.782;20.468;2022-08-18T00:29:20;5.60;;;3.80;;
30346;SDS011;19047;44.782;20.468;2022-08-18T00:32:52;5.50;;;4.10;;
30346;SDS011;19047;44.782;20.468;2022-08-18T00:36:11;6.50;;;4.10;;
30346;SDS011;19047;44.782;20.468;2022-08-18T00:39:42;5.10;;;4.30;;
30346;SDS011;19047;44.782;20.468;2022-08-18T00:43:01;5.72;;;3.90;;
30346;SDS011;19047;44.782;20.468;2022-08-18T00:46:34;4.47;;;3.80;;
30346;SDS011;19047;44.782;20.468;2022-08-18T00:49:52;5.65;;;3.78;;
30346;SDS011;19047;44.782;20.468;2022-08-18T00:53:29;4.70;;;3.78;;
30346;SDS011;19047;44.782;20.468;2022-08-18T00:56:51;4.68;;;4.00;;
30346;SDS011;19047;44.782;20.468;2022-08-18T01:00:26;5.35;;;4.10;;
30346;SDS011;19047;44.782;20.468;2022-08-18T01:03:43;5.25;;;3.88;;
30346;SDS011;19047;44.782;20.468;2022-08-18T01:07:20;4.55;;;3.53;;
30346;SDS011;19047;44.782;20.468;2022-08-18T01:10:42;5.03;;;4.13;;
30346;SDS011;19047;44.782;20.468;2022-08-18T01:14:13;6.10;;;4.03;;
30346;SDS011;19047;44.782;20.468;2022-08-18T01:17:34;5.13;;;3.88;;
30346;SDS011;19047;44.782;20.468;2022-08-18T01:21:27;5.03;;;4.28;;
30346;SDS011;19047;44.782;20.468;2022-08-18T01:25:05;4.40;;;4.00;;
30346;SDS011;19047;44.782;20.468;2022-08-18T01:29:02;6.88;;;4.00;;
30346;SDS011;19047;44.782;20.468;2022-08-18T01:32:27;5.63;;;4.20;;
30346;SDS011;19047;44.782;20.468;2022-08-18T01:36:04;6.05;;;4.22;;
30346;SDS011;19047;44.782;20.468;2022-08-18T01:39:28;4.95;;;4.13;;
30346;SDS011;19047;44.782;20.468;2022-08-18T01:43:01;4.32;;;3.92;;
30346;SDS011;19047;44.782;20.468;2022-08-18T01:46:29;6.70;;;4.15;;
30346;SDS011;19047;44.782;20.468;2022-08-18T01:50:02;5.18;;;4.38;;
30346;SDS011;19047;44.782;20.468;2022-08-18T01:53:21;5.95;;;4.13;;
30346;SDS011;19047;44.782;20.468;2022-08-18T01:56:52;6.10;;;4.50;;
30346;SDS011;19047;44.782;20.468;2022-08-18T02:00:13;6.82;;;4.80;;
30346;SDS011;19047;44.782;20.468;2022-08-18T02:03:46;5.53;;;5.03;;
30346;SDS011;19047;44.782;20.468;2022-08-18T02:07:09;7.80;;;5.00;;
30346;SDS011;19047;44.782;20.468;2022-08-18T02:10:42;6.22;;;4.15;;
30346;SDS011;19047;44.782;20.468;2022-08-18T02:13:59;5.28;;;4.50;;
30346;SDS011;19047;44.782;20.468;2022-08-18T02:17:37;6.00;;;4.30;;
30346;SDS011;19047;44.782;20.468;2022-08-18T02:20:56;7.10;;;4.40;;
30346;SDS011;19047;44.782;20.468;2022-08-18T02:24:27;5.22;;;4.50;;
30346;SDS011;19047;44.782;20.468;2022-08-18T02:27:44;4.45;;;4.05;;
30346;SDS011;19047;44.782;20.468;2022-08-18T02:31:16;5.30;;;4.45;;
30346;SDS011;19047;44.782;20.468;2022-08-18T02:34:35;5.30;;;4.32;;
30346;SDS011;19047;44.782;20.468;2022-08-18T02:38:09;6.20;;;4.57;;
30346;SDS011;19047;44.782;20.468;2022-08-18T02:41:26;5.28;;;4.28;;
30346;SDS011;19047;44.782;20.468;2022-08-18T02:44:59;6.13;;;4.30;;
30346;SDS011;19047;44.782;20.468;2022-08-18T02:48:23;4.63;;;4.22;;
30346;SDS011;19047;44.782;20.468;2022-08-18T02:51:57;4.65;;;3.85;;
30346;SDS011;19047;44.782;20.468;2022-08-18T02:55:17;4.68;;;4.22;;
30346;SDS011;19047;44.782;20.468;2022-08-18T02:58:53;6.78;;;4.55;;
30346;SDS011;19047;44.782;20.468;2022-08-18T03:02:15;8.10;;;4.25;;
30346;SDS011;19047;44.782;20.468;2022-08-18T03:05:48;5.30;;;4.38;;
30346;SDS011;19047;44.782;20.468;2022-08-18T03:09:08;5.72;;;4.38;;
30346;SDS011;19047;44.782;20.468;2022-08-18T03:12:41;7.28;;;4.00;;
30346;SDS011;19047;44.782;20.468;2022-08-18T03:16:13;9.60;;;4.22;;
30346;SDS011;19047;44.782;20.468;2022-08-18T03:19:44;7.88;;;4.63;;
30346;SDS011;19047;44.782;20.468;2022-08-18T03:23:04;8.02;;;4.40;;
30346;SDS011;19047;44.782;20.468;2022-08-18T03:26:38;6.32;;;4.40;;
30346;SDS011;19047;44.782;20.468;2022-08-18T03:29:57;7.97;;;4.68;;
30346;SDS011;19047;44.782;20.468;2022-08-18T03:33:28;8.15;;;5.20;;
30346;SDS011;19047;44.782;20.468;2022-08-18T03:36:49;8.02;;;5.18;;
30346;SDS011;19047;44.782;20.468;2022-08-18T03:40:19;6.38;;;4.95;;
30346;SDS011;19047;44.782;20.468;2022-08-18T03:43:36;11.88;;;5.05;;
30346;SDS011;19047;44.782;20.468;2022-08-18T03:47:08;11.07;;;5.40;;
30346;SDS011;19047;44.782;20.468;2022-08-18T03:50:27;9.10;;;5.32;;
30346;SDS011;19047;44.782;20.468;2022-08-18T03:54:00;7.95;;;4.82;;
30346;SDS011;19047;44.782;20.468;2022-08-18T03:57:18;8.57;;;4.97;;
30346;SDS011;19047;44.782;20.468;2022-08-18T04:00:49;7.85;;;5.30;;
30346;SDS011;19047;44.782;20.468;2022-08-18T04:04:07;7.20;;;5.35;;
30346;SDS011;19047;44.782;20.468;2022-08-18T04:07:41;7.90;;;5.15;;
30346;SDS011;19047;44.782;20.468;2022-08-18T04:10:58;8.95;;;5.38;;
30346;SDS011;19047;44.782;20.468;2022-08-18T04:14:29;8.45;;;6.20;;
30346;SDS011;19047;44.782;20.468;2022-08-18T04:17:47;5.90;;;5.15;;
30346;SDS011;19047;44.782;20.468;2022-08-18T04:21:18;9.27;;;5.68;;
30346;SDS011;19047;44.782;20.468;2022-08-18T04:24:35;6.03;;;5.15;;
30346;SDS011;19047;44.782;20.468;2022-08-18T04:28:06;11.15;;;5.18;;
30346;SDS011;19047;44.782;20.468;2022-08-18T04:31:26;8.18;;;5.40;;
30346;SDS011;19047;44.782;20.468;2022-08-18T04:34:58;7.45;;;5.10;;
30346;SDS011;19047;44.782;20.468;2022-08-18T04:38:15;7.47;;;5.05;;
30346;SDS011;19047;44.782;20.468;2022-08-18T04:41:46;5.88;;;5.22;;
30346;SDS011;19047;44.782;20.468;2022-08-18T04:45:03;8.07;;;5.35;;
30346;SDS011;19047;44.782;20.468;2022-08-18T04:48:38;9.82;;;5.47;;
30346;SDS011;19047;44.782;20.468;2022-08-18T04:52:11;7.35;;;5.13;;
30346;SDS011;19047;44.782;20.468;2022-08-18T04:55:48;6.95;;;5.47;;
30346;SDS011;19047;44.782;20.468;2022-08-18T04:59:20;6.10;;;5.45;;
30346;SDS011;19047;44.782;20.468;2022-08-18T05:02:37;8.70;;;5.63;;
30346;SDS011;19047;44.782;20.468;2022-08-18T05:06:08;16.83;;;6.07;;
30346;SDS011;19047;44.782;20.468;2022-08-18T05:09:25;18.38;;;6.07;;
30346;SDS011;19047;44.782;20.468;2022-08-18T05:12:56;9.68;;;5.50;;
30346;SDS011;19047;44.782;20.468;2022-08-18T05:16:13;9.02;;;5.75;;
30346;SDS011;19047;44.782;20.468;2022-08-18T05:19:45;8.88;;;5.80;;
30346;SDS011;19047;44.782;20.468;2022-08-18T05:23:02;12.15;;;6.25;;
30346;SDS011;19047;44.782;20.468;2022-08-18T05:26:33;6.93;;;5.32;;
30346;SDS011;19047;44.782;20.468;2022-08-18T05:29:51;8.57;;;5.93;;
30346;SDS011;19047;44.782;20.468;2022-08-18T05:33:21;6.93;;;5.85;;
30346;SDS011;19047;44.782;20.468;2022-08-18T05:40:20;8.85;;;5.47;;
30346;SDS011;19047;44.782;20.468;2022-08-18T05:43:41;12.20;;;5.60;;
30346;SDS011;19047;44.782;20.468;2022-08-18T05:47:21;11.05;;;6.72;;
30346;SDS011;19047;44.782;20.468;2022-08-18T05:50:41;10.13;;;7.30;;
30346;SDS011;19047;44.782;20.468;2022-08-18T05:54:14;11.95;;;8.38;;
30346;SDS011;19047;44.782;20.468;2022-08-18T05:58:14;13.95;;;7.65;;
30346;SDS011;19047;44.782;20.468;2022-08-18T08:44:56;8.70;;;4.78;;
30346;SDS011;19047;44.782;20.468;2022-08-18T08:48:28;6.60;;;4.75;;
30346;SDS011;19047;44.782;20.468;2022-08-18T08:55:34;4.40;;;4.00;;
30346;SDS011;19047;44.782;20.468;2022-08-18T08:59:11;8.23;;;4.78;;
30346;SDS011;19047;44.782;20.468;2022-08-18T09:06:11;11.00;;;5.78;;
30346;SDS011;19047;44.782;20.468;2022-08-18T09:20:57;7.30;;;5.22;;
30346;SDS011;19047;44.782;20.468;2022-08-18T09:24:40;7.05;;;5.43;;
30346;SDS011;19047;44.782;20.468;2022-08-18T09:53:36;6.57;;;5.95;;
30346;SDS011;19047;44.782;20.468;2022-08-18T09:57:26;8.40;;;5.65;;
30346;SDS011;19047;44.782;20.468;2022-08-18T10:01:16;6.93;;;6.20;;
30346;SDS011;19047;44.782;20.468;2022-08-18T10:08:48;6.40;;;5.90;;
30346;SDS011;19047;44.782;20.468;2022-08-18T10:23:53;10.07;;;6.55;;
30346;SDS011;19047;44.782;20.468;2022-08-18T10:31:05;5.88;;;5.47;;
30346;SDS011;19047;44.782;20.468;2022-08-18T10:34:50;7.38;;;5.93;;
30346;SDS011;19047;44.782;20.468;2022-08-18T10:38:11;6.05;;;5.45;;
30346;SDS011;19047;44.782;20.468;2022-08-18T10:41:55;6.00;;;5.43;;
30346;SDS011;19047;44.782;20.468;2022-08-18T10:45:20;6.93;;;5.72;;
30346;SDS011;19047;44.782;20.468;2022-08-18T10:49:18;6.80;;;5.28;;
30346;SDS011;19047;44.782;20.468;2022-08-18T10:56:51;6.20;;;5.70;;
30346;SDS011;19047;44.782;20.468;2022-08-18T11:00:18;6.50;;;5.95;;
30346;SDS011;19047;44.782;20.468;2022-08-18T11:04:02;6.80;;;6.10;;
30346;SDS011;19047;44.782;20.468;2022-08-18T11:08:26;5.63;;;5.13;;
30346;SDS011;19047;44.782;20.468;2022-08-18T11:11:37;6.78;;;5.90;;
30346;SDS011;19047;44.782;20.468;2022-08-18T11:15:23;5.65;;;5.25;;
30346;SDS011;19047;44.782;20.468;2022-08-18T11:18:55;6.57;;;6.07;;
30346;SDS011;19047;44.782;20.468;2022-08-18T11:22:37;6.05;;;5.45;;
30346;SDS011;19047;44.782;20.468;2022-08-18T11:26:15;6.93;;;6.15;;
30346;SDS011;19047;44.782;20.468;2022-08-18T11:29:46;5.97;;;5.57;;
30346;SDS011;19047;44.782;20.468;2022-08-18T11:33:04;8.48;;;6.10;;
30346;SDS011;19047;44.782;20.468;2022-08-18T11:36:36;5.40;;;4.78;;
30346;SDS011;19047;44.782;20.468;2022-08-18T11:39:55;5.60;;;5.10;;
30346;SDS011;19047;44.782;20.468;2022-08-18T11:43:29;6.00;;;5.07;;
30346;SDS011;19047;44.782;20.468;2022-08-18T11:46:54;5.25;;;4.60;;
30346;SDS011;19047;44.782;20.468;2022-08-18T11:50:49;5.35;;;4.95;;
30346;SDS011;19047;44.782;20.468;2022-08-18T11:54:19;5.50;;;5.10;;
30346;SDS011;19047;44.782;20.468;2022-08-18T11:57:53;4.82;;;4.38;;
30346;SDS011;19047;44.782;20.468;2022-08-18T12:05:20;4.50;;;4.13;;
30346;SDS011;19047;44.782;20.468;2022-08-18T12:08:47;9.35;;;8.02;;
30346;SDS011;19047;44.782;20.468;2022-08-18T12:12:27;5.15;;;4.65;;
30346;SDS011;19047;44.782;20.468;2022-08-18T12:15:47;5.07;;;4.30;;
30346;SDS011;19047;44.782;20.468;2022-08-18T12:19:36;5.32;;;4.13;;
30346;SDS011;19047;44.782;20.468;2022-08-18T13:20:47;4.20;;;3.80;;
30346;SDS011;19047;44.782;20.468;2022-08-18T15:31:55;4.13;;;3.70;;
30346;SDS011;19047;44.782;20.468;2022-08-18T15:35:14;4.57;;;4.05;;
30346;SDS011;19047;44.782;20.468;2022-08-18T15:38:45;9.45;;;5.13;;
30346;SDS011;19047;44.782;20.468;2022-08-18T16:23:18;5.45;;;3.70;;
30346;SDS011;19047;44.782;20.468;2022-08-18T16:26:50;5.38;;;3.45;;
30346;SDS011;19047;44.782;20.468;2022-08-18T16:30:09;7.03;;;3.80;;
30346;SDS011;19047;44.782;20.468;2022-08-18T16:33:41;6.30;;;3.70;;
30346;SDS011;19047;44.782;20.468;2022-08-18T16:36:59;6.45;;;3.63;;
30346;SDS011;19047;44.782;20.468;2022-08-18T16:40:36;6.10;;;4.13;;
30346;SDS011;19047;44.782;20.468;2022-08-18T16:43:54;6.15;;;3.65;;
30346;SDS011;19047;44.782;20.468;2022-08-18T16:47:24;4.78;;;3.53;;
30346;SDS011;19047;44.782;20.468;2022-08-18T16:50:44;14.25;;;4.78;;
30346;SDS011;19047;44.782;20.468;2022-08-18T16:54:15;18.95;;;6.05;;
30346;SDS011;19047;44.782;20.468;2022-08-18T16:57:33;12.13;;;5.13;;
30346;SDS011;19047;44.782;20.468;2022-08-18T17:01:22;13.10;;;5.22;;
30346;SDS011;19047;44.782;20.468;2022-08-18T17:04:57;16.13;;;5.65;;
30346;SDS011;19047;44.782;20.468;2022-08-18T17:08:29;7.70;;;4.20;;
30346;SDS011;19047;44.782;20.468;2022-08-18T17:11:50;6.20;;;3.72;;
30346;SDS011;19047;44.782;20.468;2022-08-18T17:15:21;7.35;;;4.07;;
30346;SDS011;19047;44.782;20.468;2022-08-18T17:18:41;6.47;;;3.83;;
30346;SDS011;19047;44.782;20.468;2022-08-18T17:22:14;6.30;;;4.38;;
30346;SDS011;19047;44.782;20.468;2022-08-18T17:25:32;6.47;;;4.20;;
30346;SDS011;19047;44.782;20.468;2022-08-18T17:32:30;6.50;;;4.70;;
30346;SDS011;19047;44.782;20.468;2022-08-18T17:36:34;10.25;;;4.82;;
30346;SDS011;19047;44.782;20.468;2022-08-18T17:40:03;10.07;;;4.95;;
30346;SDS011;19047;44.782;20.468;2022-08-18T17:43:37;9.93;;;5.28;;
